sensor_id;sensor_type;location;lat;lon;timestamp;P1;durP1;ratioP1;P2;durP2;ratioP2
26562;SDS011;14217;50.986;5.826;2023-04-24T00:02:30;1.25;;;0.35;;
26562;SDS011;14217;50.986;5.826;2023-04-24T00:07:33;1.30;;;0.30;;
26562;SDS011;14217;50.986;5.826;2023-04-24T00:12:35;0.28;;;0.20;;
26562;SDS011;14217;50.986;5.826;2023-04-24T00:17:38;0.32;;;0.30;;
26562;SDS011;14217;50.986;5.826;2023-04-24T00:22:40;12.82;;;0.40;;
26562;SDS011;14217;50.986;5.826;2023-04-24T00:27:42;7.88;;;0.32;;
26562;SDS011;14217;50.986;5.826;2023-04-24T00:32:43;0.35;;;0.30;;
26562;SDS011;14217;50.986;5.826;2023-04-24T00:37:45;0.50;;;0.30;;
26562;SDS011;14217;50.986;5.826;2023-04-24T00:42:47;0.82;;;0.30;;
26562;SDS011;14217;50.986;5.826;2023-04-24T00:47:49;0.30;;;0.30;;
26562;SDS011;14217;50.986;5.826;2023-04-24T00:52:54;0.30;;;0.30;;
26562;SDS011;14217;50.986;5.826;2023-04-24T00:57:56;0.30;;;0.30;;
26562;SDS011;14217;50.986;5.826;2023-04-24T01:02:59;1.00;;;0.30;;
26562;SDS011;14217;50.986;5.826;2023-04-24T01:08:06;0.20;;;0.20;;
26562;SDS011;14217;50.986;5.826;2023-04-24T01:13:08;0.63;;;0.60;;
26562;SDS011;14217;50.986;5.826;2023-04-24T01:18:10;0.65;;;0.50;;
26562;SDS011;14217;50.986;5.826;2023-04-24T01:23:12;0.52;;;0.38;;
26562;SDS011;14217;50.986;5.826;2023-04-24T01:28:14;0.45;;;0.32;;
26562;SDS011;14217;50.986;5.826;2023-04-24T01:33:15;1.02;;;0.45;;
26562;SDS011;14217;50.986;5.826;2023-04-24T01:38:18;1.58;;;0.50;;
26562;SDS011;14217;50.986;5.826;2023-04-24T01:43:20;0.68;;;0.40;;
26562;SDS011;14217;50.986;5.826;2023-04-24T01:48:22;0.52;;;0.43;;
26562;SDS011;14217;50.986;5.826;2023-04-24T01:53:24;0.73;;;0.45;;
26562;SDS011;14217;50.986;5.826;2023-04-24T01:58:26;2.67;;;1.00;;
26562;SDS011;14217;50.986;5.826;2023-04-24T02:03:28;1.42;;;0.55;;
26562;SDS011;14217;50.986;5.826;2023-04-24T02:08:30;2.05;;;0.50;;
26562;SDS011;14217;50.986;5.826;2023-04-24T02:13:32;1.02;;;0.50;;
26562;SDS011;14217;50.986;5.826;2023-04-24T02:18:34;1.45;;;0.60;;
26562;SDS011;14217;50.986;5.826;2023-04-24T02:23:36;0.80;;;0.60;;
26562;SDS011;14217;50.986;5.826;2023-04-24T02:28:38;1.15;;;0.45;;
26562;SDS011;14217;50.986;5.826;2023-04-24T02:33:40;0.43;;;0.40;;
26562;SDS011;14217;50.986;5.826;2023-04-24T02:38:42;2.10;;;0.55;;
26562;SDS011;14217;50.986;5.826;2023-04-24T02:43:43;0.90;;;0.30;;
26562;SDS011;14217;50.986;5.826;2023-04-24T02:48:45;0.73;;;0.50;;
26562;SDS011;14217;50.986;5.826;2023-04-24T02:53:47;1.27;;;0.60;;
26562;SDS011;14217;50.986;5.826;2023-04-24T02:58:49;2.05;;;0.75;;
26562;SDS011;14217;50.986;5.826;2023-04-24T03:03:51;2.05;;;0.70;;
26562;SDS011;14217;50.986;5.826;2023-04-24T03:08:53;1.33;;;0.50;;
26562;SDS011;14217;50.986;5.826;2023-04-24T03:13:55;1.58;;;0.70;;
26562;SDS011;14217;50.986;5.826;2023-04-24T03:18:57;0.77;;;0.77;;
26562;SDS011;14217;50.986;5.826;2023-04-24T03:23:58;1.45;;;0.40;;
26562;SDS011;14217;50.986;5.826;2023-04-24T03:29:00;0.65;;;0.55;;
26562;SDS011;14217;50.986;5.826;2023-04-24T03:34:02;0.65;;;0.52;;
26562;SDS011;14217;50.986;5.826;2023-04-24T03:39:04;0.90;;;0.60;;
26562;SDS011;14217;50.986;5.826;2023-04-24T03:44:06;1.92;;;0.55;;
26562;SDS011;14217;50.986;5.826;2023-04-24T03:49:08;1.52;;;0.70;;
26562;SDS011;14217;50.986;5.826;2023-04-24T03:54:10;0.52;;;0.47;;
26562;SDS011;14217;50.986;5.826;2023-04-24T03:59:12;0.22;;;0.22;;
26562;SDS011;14217;50.986;5.826;2023-04-24T04:04:14;1.05;;;0.50;;
26562;SDS011;14217;50.986;5.826;2023-04-24T04:09:16;1.50;;;0.60;;
26562;SDS011;14217;50.986;5.826;2023-04-24T04:14:18;2.13;;;1.00;;
26562;SDS011;14217;50.986;5.826;2023-04-24T04:19:20;0.52;;;0.43;;
26562;SDS011;14217;50.986;5.826;2023-04-24T04:24:22;1.30;;;0.50;;
26562;SDS011;14217;50.986;5.826;2023-04-24T04:29:25;3.08;;;0.60;;
26562;SDS011;14217;50.986;5.826;2023-04-24T04:34:27;0.93;;;0.70;;
26562;SDS011;14217;50.986;5.826;2023-04-24T04:39:29;1.80;;;0.57;;
26562;SDS011;14217;50.986;5.826;2023-04-24T04:44:32;1.50;;;0.47;;
26562;SDS011;14217;50.986;5.826;2023-04-24T04:49:34;1.33;;;0.40;;
26562;SDS011;14217;50.986;5.826;2023-04-24T04:54:36;0.65;;;0.50;;
26562;SDS011;14217;50.986;5.826;2023-04-24T04:59:37;1.25;;;0.50;;
26562;SDS011;14217;50.986;5.826;2023-04-24T05:04:39;0.82;;;0.70;;
26562;SDS011;14217;50.986;5.826;2023-04-24T05:09:41;0.45;;;0.38;;
26562;SDS011;14217;50.986;5.826;2023-04-24T05:14:44;1.05;;;0.45;;
26562;SDS011;14217;50.986;5.826;2023-04-24T05:19:46;0.50;;;0.50;;
26562;SDS011;14217;50.986;5.826;2023-04-24T05:24:47;0.52;;;0.50;;
26562;SDS011;14217;50.986;5.826;2023-04-24T05:29:49;0.60;;;0.60;;
26562;SDS011;14217;50.986;5.826;2023-04-24T05:34:51;4.60;;;0.63;;
26562;SDS011;14217;50.986;5.826;2023-04-24T05:39:54;0.68;;;0.35;;
26562;SDS011;14217;50.986;5.826;2023-04-24T05:44:56;0.47;;;0.47;;
26562;SDS011;14217;50.986;5.826;2023-04-24T05:49:58;0.98;;;0.57;;
26562;SDS011;14217;50.986;5.826;2023-04-24T05:55:00;0.47;;;0.40;;
26562;SDS011;14217;50.986;5.826;2023-04-24T06:00:02;0.70;;;0.50;;
26562;SDS011;14217;50.986;5.826;2023-04-24T06:05:06;0.50;;;0.38;;
26562;SDS011;14217;50.986;5.826;2023-04-24T06:10:09;16.02;;;0.75;;
26562;SDS011;14217;50.986;5.826;2023-04-24T06:15:12;0.40;;;0.40;;
26562;SDS011;14217;50.986;5.826;2023-04-24T06:20:14;0.45;;;0.30;;
26562;SDS011;14217;50.986;5.826;2023-04-24T06:25:16;0.32;;;0.32;;
26562;SDS011;14217;50.986;5.826;2023-04-24T06:30:17;0.40;;;0.40;;
26562;SDS011;14217;50.986;5.826;2023-04-24T06:35:19;0.30;;;0.30;;
26562;SDS011;14217;50.986;5.826;2023-04-24T06:40:21;0.30;;;0.30;;
26562;SDS011;14217;50.986;5.826;2023-04-24T06:45:23;0.22;;;0.20;;
26562;SDS011;14217;50.986;5.826;2023-04-24T06:50:25;0.68;;;0.50;;
26562;SDS011;14217;50.986;5.826;2023-04-24T06:55:27;2.55;;;0.40;;
26562;SDS011;14217;50.986;5.826;2023-04-24T07:00:29;1.05;;;0.40;;
26562;SDS011;14217;50.986;5.826;2023-04-24T07:05:31;1.08;;;0.52;;
26562;SDS011;14217;50.986;5.826;2023-04-24T07:10:35;0.85;;;0.50;;
26562;SDS011;14217;50.986;5.826;2023-04-24T07:15:37;0.63;;;0.50;;
26562;SDS011;14217;50.986;5.826;2023-04-24T07:20:39;0.60;;;0.60;;
26562;SDS011;14217;50.986;5.826;2023-04-24T07:25:41;1.67;;;0.45;;
26562;SDS011;14217;50.986;5.826;2023-04-24T07:30:43;0.82;;;0.30;;
26562;SDS011;14217;50.986;5.826;2023-04-24T07:35:45;10.35;;;0.85;;
26562;SDS011;14217;50.986;5.826;2023-04-24T07:40:47;0.63;;;0.45;;
26562;SDS011;14217;50.986;5.826;2023-04-24T07:45:50;4.28;;;0.50;;
26562;SDS011;14217;50.986;5.826;2023-04-24T07:50:53;1.73;;;1.13;;
26562;SDS011;14217;50.986;5.826;2023-04-24T07:55:55;2.35;;;0.45;;
26562;SDS011;14217;50.986;5.826;2023-04-24T08:00:57;3.83;;;0.70;;
26562;SDS011;14217;50.986;5.826;2023-04-24T08:05:59;0.63;;;0.50;;
26562;SDS011;14217;50.986;5.826;2023-04-24T08:11:02;2.10;;;0.85;;
26562;SDS011;14217;50.986;5.826;2023-04-24T08:16:04;2.70;;;0.70;;
26562;SDS011;14217;50.986;5.826;2023-04-24T08:21:05;7.32;;;1.45;;
26562;SDS011;14217;50.986;5.826;2023-04-24T08:26:07;5.63;;;0.85;;
26562;SDS011;14217;50.986;5.826;2023-04-24T08:31:09;2.35;;;0.80;;
26562;SDS011;14217;50.986;5.826;2023-04-24T08:36:11;4.00;;;1.00;;
26562;SDS011;14217;50.986;5.826;2023-04-24T08:41:14;2.33;;;0.95;;
26562;SDS011;14217;50.986;5.826;2023-04-24T08:46:17;4.25;;;1.23;;
26562;SDS011;14217;50.986;5.826;2023-04-24T08:51:20;6.65;;;0.90;;
26562;SDS011;14217;50.986;5.826;2023-04-24T08:56:24;2.38;;;1.40;;
26562;SDS011;14217;50.986;5.826;2023-04-24T09:01:26;7.13;;;1.40;;
26562;SDS011;14217;50.986;5.826;2023-04-24T09:06:28;3.28;;;0.82;;
26562;SDS011;14217;50.986;5.826;2023-04-24T09:11:32;2.40;;;1.25;;
26562;SDS011;14217;50.986;5.826;2023-04-24T09:16:36;5.38;;;1.20;;
26562;SDS011;14217;50.986;5.826;2023-04-24T09:21:38;7.53;;;1.77;;
26562;SDS011;14217;50.986;5.826;2023-04-24T09:26:41;9.52;;;1.20;;
26562;SDS011;14217;50.986;5.826;2023-04-24T09:31:44;5.53;;;1.10;;
26562;SDS011;14217;50.986;5.826;2023-04-24T09:36:47;2.42;;;0.93;;
26562;SDS011;14217;50.986;5.826;2023-04-24T09:41:50;4.63;;;1.17;;
26562;SDS011;14217;50.986;5.826;2023-04-24T09:46:54;1.98;;;1.20;;
26562;SDS011;14217;50.986;5.826;2023-04-24T09:52:03;3.15;;;0.80;;
26562;SDS011;14217;50.986;5.826;2023-04-24T09:57:09;4.20;;;1.23;;
26562;SDS011;14217;50.986;5.826;2023-04-24T10:02:17;1.38;;;0.77;;
26562;SDS011;14217;50.986;5.826;2023-04-24T10:07:21;1.40;;;1.00;;
26562;SDS011;14217;50.986;5.826;2023-04-24T10:12:23;7.72;;;1.08;;
26562;SDS011;14217;50.986;5.826;2023-04-24T10:17:26;1.58;;;1.35;;
26562;SDS011;14217;50.986;5.826;2023-04-24T10:22:29;2.88;;;1.55;;
26562;SDS011;14217;50.986;5.826;2023-04-24T10:27:32;1.50;;;0.90;;
26562;SDS011;14217;50.986;5.826;2023-04-24T10:32:34;4.00;;;1.23;;
26562;SDS011;14217;50.986;5.826;2023-04-24T10:37:37;0.95;;;0.65;;
26562;SDS011;14217;50.986;5.826;2023-04-24T10:42:41;3.35;;;1.00;;
26562;SDS011;14217;50.986;5.826;2023-04-24T10:48:07;1.73;;;0.80;;
26562;SDS011;14217;50.986;5.826;2023-04-24T10:53:19;0.90;;;0.77;;
26562;SDS011;14217;50.986;5.826;2023-04-24T10:58:26;1.65;;;0.90;;
26562;SDS011;14217;50.986;5.826;2023-04-24T11:03:38;2.38;;;1.05;;
26562;SDS011;14217;50.986;5.826;2023-04-24T11:08:52;3.45;;;1.00;;
26562;SDS011;14217;50.986;5.826;2023-04-24T11:14:04;2.42;;;0.82;;
26562;SDS011;14217;50.986;5.826;2023-04-24T11:19:09;1.85;;;1.08;;
26562;SDS011;14217;50.986;5.826;2023-04-24T11:24:48;3.13;;;1.35;;
26562;SDS011;14217;50.986;5.826;2023-04-24T11:34:58;2.95;;;1.00;;
26562;SDS011;14217;50.986;5.826;2023-04-24T11:40:18;2.78;;;1.02;;
26562;SDS011;14217;50.986;5.826;2023-04-24T11:45:28;2.55;;;1.23;;
26562;SDS011;14217;50.986;5.826;2023-04-24T11:50:31;0.70;;;0.70;;
26562;SDS011;14217;50.986;5.826;2023-04-24T11:55:33;1.92;;;0.70;;
26562;SDS011;14217;50.986;5.826;2023-04-24T12:00:35;3.08;;;1.00;;
26562;SDS011;14217;50.986;5.826;2023-04-24T12:05:37;3.92;;;1.42;;
26562;SDS011;14217;50.986;5.826;2023-04-24T12:10:40;3.63;;;0.90;;
26562;SDS011;14217;50.986;5.826;2023-04-24T12:15:42;2.55;;;1.10;;
26562;SDS011;14217;50.986;5.826;2023-04-24T12:20:44;2.15;;;0.85;;
26562;SDS011;14217;50.986;5.826;2023-04-24T12:25:46;2.20;;;1.10;;
26562;SDS011;14217;50.986;5.826;2023-04-24T12:30:48;3.85;;;1.20;;
26562;SDS011;14217;50.986;5.826;2023-04-24T12:35:51;2.28;;;1.23;;
26562;SDS011;14217;50.986;5.826;2023-04-24T12:41:05;8.55;;;1.13;;
26562;SDS011;14217;50.986;5.826;2023-04-24T12:46:08;3.00;;;1.02;;
26562;SDS011;14217;50.986;5.826;2023-04-24T12:51:10;4.38;;;1.23;;
26562;SDS011;14217;50.986;5.826;2023-04-24T12:56:12;3.20;;;1.63;;
26562;SDS011;14217;50.986;5.826;2023-04-24T13:01:14;2.67;;;1.20;;
26562;SDS011;14217;50.986;5.826;2023-04-24T13:06:16;1.30;;;1.17;;
26562;SDS011;14217;50.986;5.826;2023-04-24T13:11:17;3.20;;;0.98;;
26562;SDS011;14217;50.986;5.826;2023-04-24T13:16:19;2.10;;;0.90;;
26562;SDS011;14217;50.986;5.826;2023-04-24T13:21:21;1.02;;;0.70;;
26562;SDS011;14217;50.986;5.826;2023-04-24T13:26:23;1.90;;;0.82;;
26562;SDS011;14217;50.986;5.826;2023-04-24T13:31:25;0.90;;;0.70;;
26562;SDS011;14217;50.986;5.826;2023-04-24T13:36:27;2.17;;;0.90;;
26562;SDS011;14217;50.986;5.826;2023-04-24T13:41:29;2.17;;;1.00;;
26562;SDS011;14217;50.986;5.826;2023-04-24T13:46:31;1.25;;;0.95;;
26562;SDS011;14217;50.986;5.826;2023-04-24T13:51:34;1.48;;;1.20;;
26562;SDS011;14217;50.986;5.826;2023-04-24T13:56:36;2.17;;;1.45;;
26562;SDS011;14217;50.986;5.826;2023-04-24T14:01:37;1.10;;;0.90;;
26562;SDS011;14217;50.986;5.826;2023-04-24T14:06:40;0.95;;;0.93;;
26562;SDS011;14217;50.986;5.826;2023-04-24T14:11:42;3.63;;;1.00;;
26562;SDS011;14217;50.986;5.826;2023-04-24T14:16:44;1.38;;;0.98;;
26562;SDS011;14217;50.986;5.826;2023-04-24T14:21:46;0.60;;;0.55;;
26562;SDS011;14217;50.986;5.826;2023-04-24T14:26:47;0.90;;;0.80;;
26562;SDS011;14217;50.986;5.826;2023-04-24T14:31:49;0.95;;;0.85;;
26562;SDS011;14217;50.986;5.826;2023-04-24T14:36:52;1.58;;;1.30;;
26562;SDS011;14217;50.986;5.826;2023-04-24T14:41:54;1.92;;;1.10;;
26562;SDS011;14217;50.986;5.826;2023-04-24T14:46:56;0.98;;;0.85;;
26562;SDS011;14217;50.986;5.826;2023-04-24T14:51:58;3.40;;;0.88;;
26562;SDS011;14217;50.986;5.826;2023-04-24T14:57:00;1.65;;;1.13;;
26562;SDS011;14217;50.986;5.826;2023-04-24T15:02:03;0.88;;;0.80;;
26562;SDS011;14217;50.986;5.826;2023-04-24T15:07:16;1.48;;;0.82;;
26562;SDS011;14217;50.986;5.826;2023-04-24T15:12:18;1.23;;;0.90;;
26562;SDS011;14217;50.986;5.826;2023-04-24T15:17:20;0.90;;;0.70;;
26562;SDS011;14217;50.986;5.826;2023-04-24T15:22:22;0.70;;;0.68;;
26562;SDS011;14217;50.986;5.826;2023-04-24T15:27:24;0.82;;;0.70;;
26562;SDS011;14217;50.986;5.826;2023-04-24T15:32:26;1.10;;;0.93;;
26562;SDS011;14217;50.986;5.826;2023-04-24T15:37:28;1.13;;;0.93;;
26562;SDS011;14217;50.986;5.826;2023-04-24T15:42:30;2.75;;;0.95;;
26562;SDS011;14217;50.986;5.826;2023-04-24T15:47:32;0.52;;;0.52;;
26562;SDS011;14217;50.986;5.826;2023-04-24T15:52:34;2.05;;;0.70;;
26562;SDS011;14217;50.986;5.826;2023-04-24T15:57:36;1.08;;;0.73;;
26562;SDS011;14217;50.986;5.826;2023-04-24T16:02:38;0.90;;;0.88;;
26562;SDS011;14217;50.986;5.826;2023-04-24T16:07:41;0.80;;;0.80;;
26562;SDS011;14217;50.986;5.826;2023-04-24T16:12:42;0.93;;;0.47;;
26562;SDS011;14217;50.986;5.826;2023-04-24T16:17:44;1.25;;;0.80;;
26562;SDS011;14217;50.986;5.826;2023-04-24T16:22:46;1.08;;;0.73;;
26562;SDS011;14217;50.986;5.826;2023-04-24T16:27:49;0.60;;;0.60;;
26562;SDS011;14217;50.986;5.826;2023-04-24T16:32:53;0.82;;;0.47;;
26562;SDS011;14217;50.986;5.826;2023-04-24T16:37:55;1.17;;;0.60;;
26562;SDS011;14217;50.986;5.826;2023-04-24T16:42:56;1.40;;;0.68;;
26562;SDS011;14217;50.986;5.826;2023-04-24T16:47:58;0.68;;;0.63;;
26562;SDS011;14217;50.986;5.826;2023-04-24T16:53:01;1.60;;;0.80;;
26562;SDS011;14217;50.986;5.826;2023-04-24T16:58:03;0.50;;;0.50;;
26562;SDS011;14217;50.986;5.826;2023-04-24T17:03:04;0.52;;;0.52;;
26562;SDS011;14217;50.986;5.826;2023-04-24T17:08:06;0.40;;;0.30;;
26562;SDS011;14217;50.986;5.826;2023-04-24T17:13:08;0.50;;;0.50;;
26562;SDS011;14217;50.986;5.826;2023-04-24T17:18:10;0.52;;;0.47;;
26562;SDS011;14217;50.986;5.826;2023-04-24T17:23:12;0.75;;;0.57;;
26562;SDS011;14217;50.986;5.826;2023-04-24T17:28:20;0.47;;;0.47;;
26562;SDS011;14217;50.986;5.826;2023-04-24T17:33:28;1.63;;;1.05;;
26562;SDS011;14217;50.986;5.826;2023-04-24T17:38:31;0.50;;;0.40;;
26562;SDS011;14217;50.986;5.826;2023-04-24T17:43:33;0.50;;;0.40;;
26562;SDS011;14217;50.986;5.826;2023-04-24T17:48:35;1.40;;;0.35;;
26562;SDS011;14217;50.986;5.826;2023-04-24T17:53:37;0.40;;;0.35;;
26562;SDS011;14217;50.986;5.826;2023-04-24T17:58:40;0.90;;;0.55;;
26562;SDS011;14217;50.986;5.826;2023-04-24T18:03:42;1.48;;;0.50;;
26562;SDS011;14217;50.986;5.826;2023-04-24T18:08:47;0.30;;;0.30;;
26562;SDS011;14217;50.986;5.826;2023-04-24T18:13:49;0.38;;;0.38;;
26562;SDS011;14217;50.986;5.826;2023-04-24T18:18:55;0.63;;;0.50;;
26562;SDS011;14217;50.986;5.826;2023-04-24T18:23:56;0.68;;;0.55;;
26562;SDS011;14217;50.986;5.826;2023-04-24T18:29:00;0.40;;;0.40;;
26562;SDS011;14217;50.986;5.826;2023-04-24T18:34:02;0.52;;;0.40;;
26562;SDS011;14217;50.986;5.826;2023-04-24T18:39:04;1.25;;;0.40;;
26562;SDS011;14217;50.986;5.826;2023-04-24T18:44:06;0.60;;;0.60;;
26562;SDS011;14217;50.986;5.826;2023-04-24T18:49:09;0.68;;;0.45;;
26562;SDS011;14217;50.986;5.826;2023-04-24T18:54:11;1.92;;;0.77;;
26562;SDS011;14217;50.986;5.826;2023-04-24T18:59:13;0.43;;;0.38;;
26562;SDS011;14217;50.986;5.826;2023-04-24T19:04:15;0.40;;;0.40;;
26562;SDS011;14217;50.986;5.826;2023-04-24T19:09:17;0.40;;;0.40;;
26562;SDS011;14217;50.986;5.826;2023-04-24T19:14:18;0.65;;;0.40;;
26562;SDS011;14217;50.986;5.826;2023-04-24T19:19:23;0.45;;;0.30;;
26562;SDS011;14217;50.986;5.826;2023-04-24T19:24:26;0.60;;;0.50;;
26562;SDS011;14217;50.986;5.826;2023-04-24T19:29:29;0.45;;;0.40;;
26562;SDS011;14217;50.986;5.826;2023-04-24T19:34:31;0.47;;;0.40;;
26562;SDS011;14217;50.986;5.826;2023-04-24T19:39:34;0.85;;;0.40;;
26562;SDS011;14217;50.986;5.826;2023-04-24T19:44:36;1.02;;;0.70;;
26562;SDS011;14217;50.986;5.826;2023-04-24T19:49:38;0.40;;;0.40;;
26562;SDS011;14217;50.986;5.826;2023-04-24T19:54:40;1.30;;;0.60;;
26562;SDS011;14217;50.986;5.826;2023-04-24T19:59:42;1.27;;;0.43;;
26562;SDS011;14217;50.986;5.826;2023-04-24T20:04:44;0.38;;;0.38;;
26562;SDS011;14217;50.986;5.826;2023-04-24T20:09:46;0.93;;;0.40;;
26562;SDS011;14217;50.986;5.826;2023-04-24T20:14:48;0.50;;;0.43;;
26562;SDS011;14217;50.986;5.826;2023-04-24T20:19:50;1.60;;;0.43;;
26562;SDS011;14217;50.986;5.826;2023-04-24T20:24:52;0.43;;;0.35;;
26562;SDS011;14217;50.986;5.826;2023-04-24T20:29:54;0.73;;;0.40;;
26562;SDS011;14217;50.986;5.826;2023-04-24T20:34:56;5.10;;;0.68;;
26562;SDS011;14217;50.986;5.826;2023-04-24T20:39:58;0.45;;;0.45;;
26562;SDS011;14217;50.986;5.826;2023-04-24T20:45:05;1.60;;;0.90;;
26562;SDS011;14217;50.986;5.826;2023-04-24T20:50:08;0.60;;;0.50;;
26562;SDS011;14217;50.986;5.826;2023-04-24T20:55:10;2.65;;;0.80;;
26562;SDS011;14217;50.986;5.826;2023-04-24T21:00:12;1.42;;;0.68;;
26562;SDS011;14217;50.986;5.826;2023-04-24T21:05:14;11.48;;;1.70;;
26562;SDS011;14217;50.986;5.826;2023-04-24T21:10:16;10.40;;;0.60;;
26562;SDS011;14217;50.986;5.826;2023-04-24T21:15:19;1.40;;;0.57;;
26562;SDS011;14217;50.986;5.826;2023-04-24T21:20:21;0.80;;;0.60;;
26562;SDS011;14217;50.986;5.826;2023-04-24T21:25:23;1.05;;;0.60;;
26562;SDS011;14217;50.986;5.826;2023-04-24T21:30:25;4.90;;;0.82;;
26562;SDS011;14217;50.986;5.826;2023-04-24T21:35:27;1.67;;;0.47;;
26562;SDS011;14217;50.986;5.826;2023-04-24T21:40:29;1.80;;;0.65;;
26562;SDS011;14217;50.986;5.826;2023-04-24T21:45:31;4.07;;;0.50;;
26562;SDS011;14217;50.986;5.826;2023-04-24T21:50:32;1.55;;;0.40;;
26562;SDS011;14217;50.986;5.826;2023-04-24T21:55:34;1.85;;;0.43;;
26562;SDS011;14217;50.986;5.826;2023-04-24T22:00:36;2.53;;;0.45;;
26562;SDS011;14217;50.986;5.826;2023-04-24T22:05:38;0.98;;;0.50;;
26562;SDS011;14217;50.986;5.826;2023-04-24T22:10:40;4.28;;;0.52;;
26562;SDS011;14217;50.986;5.826;2023-04-24T22:15:41;1.08;;;0.77;;
26562;SDS011;14217;50.986;5.826;2023-04-24T22:20:43;1.02;;;0.70;;
26562;SDS011;14217;50.986;5.826;2023-04-24T22:25:47;1.58;;;0.50;;
26562;SDS011;14217;50.986;5.826;2023-04-24T22:30:48;1.50;;;0.77;;
26562;SDS011;14217;50.986;5.826;2023-04-24T22:35:50;0.95;;;0.45;;
26562;SDS011;14217;50.986;5.826;2023-04-24T22:40:52;0.40;;;0.40;;
26562;SDS011;14217;50.986;5.826;2023-04-24T22:45:54;1.38;;;0.40;;
26562;SDS011;14217;50.986;5.826;2023-04-24T22:50:56;1.25;;;0.63;;
26562;SDS011;14217;50.986;5.826;2023-04-24T22:55:58;1.15;;;0.40;;
26562;SDS011;14217;50.986;5.826;2023-04-24T23:01:00;1.05;;;0.47;;
26562;SDS011;14217;50.986;5.826;2023-04-24T23:06:02;0.70;;;0.57;;
26562;SDS011;14217;50.986;5.826;2023-04-24T23:11:04;1.10;;;0.50;;
26562;SDS011;14217;50.986;5.826;2023-04-24T23:16:06;0.93;;;0.40;;
26562;SDS011;14217;50.986;5.826;2023-04-24T23:21:08;1.15;;;0.60;;
26562;SDS011;14217;50.986;5.826;2023-04-24T23:26:10;0.45;;;0.43;;
26562;SDS011;14217;50.986;5.826;2023-04-24T23:31:12;1.20;;;0.60;;
26562;SDS011;14217;50.986;5.826;2023-04-24T23:36:14;1.25;;;0.68;;
26562;SDS011;14217;50.986;5.826;2023-04-24T23:41:16;1.67;;;0.65;;
26562;SDS011;14217;50.986;5.826;2023-04-24T23:46:18;0.55;;;0.55;;
26562;SDS011;14217;50.986;5.826;2023-04-24T23:51:20;0.57;;;0.50;;
26562;SDS011;14217;50.986;5.826;2023-04-24T23:56:23;1.08;;;0.60;;
